Time;durP1;ratioP1;P1;durP2;ratioP2;P2;SDS_P1;SDS_P2;PMS_P1;PMS_P2;Temp;Humidity;BMP_temperature;BMP_pressure;BME280_temperature;BME280_humidity;BME280_pressure;Samples;Min_cycle;Max_cycle;Signal;HPM_P1;HPM_P2
2021/12/02 00:00:38;;;;;;;24.00;18.23;;;8.80;59.50;;;;;;5042619;28;20100;-62
2021/12/02 00:03:07;;;;;;;25.27;17.67;;;8.80;59.00;;;;;;5035155;28;20383;-62
2021/12/02 00:05:33;;;;;;;24.13;17.70;;;8.90;58.70;;;;;;5044192;28;20162;-63
2021/12/02 00:07:58;;;;;;;22.17;17.53;;;8.90;59.70;;;;;;5055016;28;20103;-62
2021/12/02 00:10:28;;;;;;;24.77;19.77;;;8.90;60.50;;;;;;5044600;28;20022;-62
2021/12/02 00:12:56;;;;;;;24.57;19.50;;;8.90;60.30;;;;;;5034939;28;20020;-62
2021/12/02 00:15:25;;;;;;;26.13;19.17;;;9.00;62.00;;;;;;5036508;28;20018;-62
2021/12/02 00:18:18;;;;;;;21.97;17.93;;;9.00;63.10;;;;;;5037073;28;20028;-62
2021/12/02 00:21:03;;;;;;;26.87;18.63;;;8.90;63.20;;;;;;5045749;28;20080;-62
2021/12/02 00:23:33;;;;;;;23.03;18.03;;;8.80;62.10;;;;;;5054274;28;20024;-62
2021/12/02 00:26:03;;;;;;;25.27;19.70;;;8.60;59.40;;;;;;5040335;28;20021;-62
2021/12/02 00:28:30;;;;;;;25.67;20.30;;;8.60;58.30;;;;;;5034844;28;20116;-62
2021/12/02 00:31:00;;;;;;;27.50;19.53;;;8.50;59.30;;;;;;5034749;28;20034;-62
2021/12/02 00:33:28;;;;;;;26.53;20.27;;;8.50;59.50;;;;;;5036093;28;20045;-63
2021/12/02 00:35:54;;;;;;;25.57;19.70;;;8.50;59.50;;;;;;5041105;28;20073;-63
2021/12/02 00:38:21;;;;;;;26.17;20.13;;;8.50;60.10;;;;;;5033261;28;20057;-62
2021/12/02 00:40:48;;;;;;;27.40;21.17;;;8.20;65.10;;;;;;5045512;28;20040;-62
2021/12/02 00:43:15;;;;;;;26.27;20.60;;;8.20;63.80;;;;;;5054113;28;20024;-63
2021/12/02 00:45:42;;;;;;;26.60;21.40;;;8.20;64.30;;;;;;5049560;28;20497;-62
2021/12/02 00:48:09;;;;;;;28.87;21.13;;;8.20;65.50;;;;;;5054227;28;20025;-62
2021/12/02 00:50:37;;;;;;;25.97;21.40;;;8.30;63.70;;;;;;5043779;28;20040;-62
2021/12/02 00:53:05;;;;;;;29.03;21.70;;;8.20;63.60;;;;;;5041544;28;20493;-61
2021/12/02 00:55:32;;;;;;;28.53;21.23;;;8.30;62.20;;;;;;5049078;28;20051;-61
2021/12/02 00:57:58;;;;;;;26.70;20.90;;;8.30;61.20;;;;;;5032473;28;20044;-61
2021/12/02 01:00:24;;;;;;;29.80;21.50;;;8.30;62.40;;;;;;5034062;28;20062;-61
2021/12/02 01:02:50;;;;;;;32.40;23.00;;;8.40;62.80;;;;;;5034295;28;20029;-61
2021/12/02 01:05:16;;;;;;;31.27;23.30;;;8.40;62.00;;;;;;5049142;28;20091;-61
2021/12/02 01:07:43;;;;;;;28.70;21.50;;;8.50;62.50;;;;;;5034008;28;20025;-61
2021/12/02 01:10:08;;;;;;;28.77;21.97;;;8.40;60.60;;;;;;5038915;28;20060;-61
2021/12/02 01:12:36;;;;;;;28.43;22.23;;;8.40;61.40;;;;;;5052963;28;20467;-61
2021/12/02 01:15:05;;;;;;;30.57;22.47;;;8.40;61.30;;;;;;5052791;28;20057;-61
2021/12/02 01:17:31;;;;;;;27.67;21.70;;;8.50;60.30;;;;;;5053681;28;20394;-61
2021/12/02 01:19:57;;;;;;;28.57;21.73;;;8.50;60.40;;;;;;5049734;28;20045;-61
2021/12/02 01:22:26;;;;;;;28.53;21.93;;;8.50;61.00;;;;;;5032430;28;20396;-61
2021/12/02 01:24:52;;;;;;;26.10;21.77;;;8.60;60.10;;;;;;5035393;28;20037;-62
2021/12/02 01:27:21;;;;;;;24.77;20.40;;;8.60;59.70;;;;;;5048366;28;20486;-62
2021/12/02 01:29:48;;;;;;;29.00;21.33;;;8.60;59.80;;;;;;5034589;28;20060;-62
2021/12/02 01:32:16;;;;;;;27.83;21.47;;;8.60;61.00;;;;;;5053480;28;20024;-62
2021/12/02 01:34:45;;;;;;;29.03;23.00;;;8.70;61.20;;;;;;5051857;28;20478;-62
2021/12/02 01:37:12;;;;;;;28.87;22.33;;;8.60;59.90;;;;;;5052665;28;20127;-62
2021/12/02 01:39:38;;;;;;;29.50;22.63;;;8.60;60.20;;;;;;5051146;28;20489;-62
2021/12/02 01:42:07;;;;;;;31.90;23.30;;;8.60;60.00;;;;;;5052370;28;20044;-62
2021/12/02 01:44:41;;;;;;;29.03;21.87;;;8.50;60.70;;;;;;5052445;28;20036;-62
2021/12/02 01:47:13;;;;;;;31.27;23.33;;;8.60;60.50;;;;;;5035508;28;20017;-62
2021/12/02 01:49:42;;;;;;;27.07;22.13;;;8.60;60.70;;;;;;5052210;28;20090;-62
2021/12/02 01:52:12;;;;;;;31.47;23.60;;;8.50;61.00;;;;;;5052087;28;20075;-62
2021/12/02 01:54:47;;;;;;;31.07;23.67;;;8.60;62.40;;;;;;5052389;28;20433;-62
2021/12/02 01:57:58;;;;;;;36.47;23.23;;;8.60;61.60;;;;;;5052453;28;20359;-62
2021/12/02 02:00:25;;;;;;;34.33;22.77;;;8.70;63.10;;;;;;5023528;28;20051;-61
2021/12/02 02:02:52;;;;;;;30.03;23.30;;;8.60;60.80;;;;;;5052288;28;20451;-62
2021/12/02 02:05:17;;;;;;;30.10;21.30;;;8.50;61.10;;;;;;5048181;28;20032;-62
2021/12/02 02:08:15;;;;;;;29.33;22.47;;;8.60;60.90;;;;;;5051060;28;20025;-62
2021/12/02 02:10:41;;;;;;;30.27;22.27;;;8.60;60.40;;;;;;5044637;28;20510;-62
2021/12/02 02:13:09;;;;;;;28.17;22.77;;;8.60;60.80;;;;;;5033952;28;20108;-62
2021/12/02 02:15:39;;;;;;;27.23;22.27;;;8.60;61.30;;;;;;5045863;28;20026;-61
2021/12/02 02:18:21;;;;;;;28.87;22.37;;;8.60;61.00;;;;;;5050780;28;20444;-61
2021/12/02 02:21:00;;;;;;;28.47;22.17;;;8.70;61.20;;;;;;5043194;28;20038;-62
2021/12/02 02:23:29;;;;;;;29.63;22.07;;;8.70;61.40;;;;;;5043078;28;20457;-62
2021/12/02 02:25:56;;;;;;;28.77;22.67;;;8.80;60.90;;;;;;5050855;28;20025;-61
2021/12/02 02:28:21;;;;;;;26.43;21.13;;;8.60;60.00;;;;;;5051795;28;20060;-61
2021/12/02 02:30:48;;;;;;;28.67;22.63;;;8.70;60.10;;;;;;5050033;28;20052;-61
2021/12/02 02:33:15;;;;;;;26.47;21.27;;;8.60;60.80;;;;;;5051613;28;20028;-61
2021/12/02 02:35:42;;;;;;;31.52;22.40;;;8.70;61.60;;;;;;5006364;28;1107095;-62
2021/12/02 02:38:08;;;;;;;26.87;21.37;;;8.60;61.10;;;;;;5033081;28;20037;-61
2021/12/02 02:40:36;;;;;;;28.70;23.03;;;8.60;61.00;;;;;;5037888;28;20479;-61
2021/12/02 02:43:08;;;;;;;27.57;21.63;;;8.60;61.20;;;;;;5038874;28;20030;-61
2021/12/02 02:45:35;;;;;;;27.70;21.97;;;8.60;61.50;;;;;;5032825;28;20360;-61
2021/12/02 02:48:01;;;;;;;30.33;22.83;;;8.70;61.00;;;;;;5032792;28;20061;-61
2021/12/02 02:50:29;;;;;;;27.47;22.70;;;8.70;61.60;;;;;;5036159;28;20060;-61
2021/12/02 02:53:21;;;;;;;25.83;21.97;;;8.60;61.10;;;;;;5050228;28;20429;-61
2021/12/02 02:56:31;;;;;;;27.70;22.53;;;8.60;61.00;;;;;;5038615;28;20021;-61
2021/12/02 03:01:33;;;;;;;28.70;21.90;;;8.50;61.60;;;;;;5042659;28;20040;-61
2021/12/02 03:12:40;;;;;;;30.25;21.92;;;8.60;62.20;;;;;;5039629;28;20031;-61
2021/12/02 03:17:11;;;;;;;25.23;20.93;;;8.60;61.40;;;;;;5049686;28;20394;-61
2021/12/02 03:19:43;;;;;;;29.20;22.93;;;8.60;61.40;;;;;;5051092;28;20029;-61
2021/12/02 03:22:09;;;;;;;26.57;21.43;;;8.60;61.70;;;;;;5042891;28;20029;-61
2021/12/02 03:24:35;;;;;;;28.20;22.37;;;8.50;60.90;;;;;;5053351;28;20024;-61
2021/12/02 03:27:01;;;;;;;28.57;22.90;;;8.60;61.40;;;;;;5053712;28;20032;-62
2021/12/02 03:29:26;;;;;;;28.90;22.37;;;8.60;61.70;;;;;;5054730;28;20470;-61
2021/12/02 03:31:52;;;;;;;27.30;21.67;;;8.60;62.10;;;;;;5054619;28;20056;-61
2021/12/02 03:34:18;;;;;;;24.53;20.97;;;8.60;61.50;;;;;;5054821;28;20544;-61
2021/12/02 03:36:50;;;;;;;28.30;22.27;;;8.60;61.90;;;;;;5052593;28;20049;-61
2021/12/02 03:39:16;;;;;;;27.10;21.87;;;8.70;61.60;;;;;;5054581;28;20029;-61
2021/12/02 03:41:41;;;;;;;26.57;21.50;;;8.70;61.90;;;;;;5054544;28;20540;-61
2021/12/02 03:44:08;;;;;;;28.53;22.07;;;8.60;62.20;;;;;;5055621;28;20025;-61
2021/12/02 03:46:34;;;;;;;29.63;21.53;;;8.60;62.30;;;;;;5045675;28;20026;-61
2021/12/02 03:49:00;;;;;;;24.00;19.47;;;8.40;62.10;;;;;;5050113;28;20056;-61
2021/12/02 03:51:26;;;;;;;24.47;20.63;;;8.70;62.30;;;;;;5035387;28;20056;-62
2021/12/02 03:53:52;;;;;;;27.20;21.90;;;8.70;61.60;;;;;;5034285;28;20155;-61
2021/12/02 03:56:19;;;;;;;31.23;22.60;;;8.60;61.90;;;;;;5041522;28;20112;-61
2021/12/02 03:58:45;;;;;;;26.40;20.87;;;8.70;62.20;;;;;;5035425;28;20105;-62
2021/12/02 04:01:12;;;;;;;28.70;22.07;;;8.70;62.00;;;;;;5053261;28;20041;-62
2021/12/02 04:03:38;;;;;;;28.70;22.33;;;8.60;61.90;;;;;;5055369;28;20025;-62
2021/12/02 04:06:05;;;;;;;29.23;22.83;;;8.70;62.60;;;;;;5048519;28;20563;-62
2021/12/02 04:08:38;;;;;;;27.77;21.97;;;8.80;62.20;;;;;;5035280;28;20028;-61
2021/12/02 04:13:44;;;;;;;30.20;22.85;;;8.80;62.20;;;;;;5054739;28;20033;-61
2021/12/02 04:16:15;;;;;;;26.30;21.70;;;8.80;61.30;;;;;;5048182;28;20030;-61
2021/12/02 04:18:41;;;;;;;27.97;21.67;;;8.50;61.20;;;;;;5035213;28;20022;-61
2021/12/02 04:21:07;;;;;;;29.23;22.40;;;8.60;62.50;;;;;;5041883;28;20083;-61
2021/12/02 04:23:32;;;;;;;26.40;21.03;;;8.80;62.80;;;;;;5055010;28;20025;-62
2021/12/02 04:25:58;;;;;;;27.33;22.00;;;8.90;61.80;;;;;;5053588;28;20095;-62
2021/12/02 04:28:23;;;;;;;27.63;22.07;;;8.80;62.00;;;;;;5053322;28;20021;-62
2021/12/02 04:30:49;;;;;;;24.60;20.50;;;8.90;61.90;;;;;;5049878;28;20438;-61
2021/12/02 04:33:14;;;;;;;27.60;20.43;;;8.70;59.40;;;;;;5034461;28;20021;-61
2021/12/02 04:35:40;;;;;;;29.17;21.47;;;8.70;60.70;;;;;;5035366;28;20029;-61
2021/12/02 04:38:06;;;;;;;26.57;20.80;;;8.80;62.00;;;;;;5047717;28;20056;-61
2021/12/02 04:40:31;;;;;;;25.90;21.33;;;8.70;60.20;;;;;;5035607;28;20071;-61
2021/12/02 04:42:57;;;;;;;29.03;22.43;;;8.70;62.10;;;;;;5044478;28;20367;-61
2021/12/02 04:45:22;;;;;;;26.30;21.37;;;8.60;62.00;;;;;;5054313;28;20035;-62
2021/12/02 04:47:48;;;;;;;28.27;21.33;;;8.70;62.20;;;;;;5038897;28;20071;-61
2021/12/02 04:50:14;;;;;;;25.30;20.43;;;8.70;62.20;;;;;;5054261;28;20056;-62
2021/12/02 04:52:39;;;;;;;27.03;21.47;;;8.70;62.50;;;;;;5051570;28;20481;-61
2021/12/02 04:55:07;;;;;;;25.43;20.70;;;8.70;62.40;;;;;;5041265;28;20510;-61
2021/12/02 04:57:33;;;;;;;25.87;20.40;;;8.70;62.50;;;;;;5035384;28;20036;-61
2021/12/02 04:59:58;;;;;;;26.47;19.37;;;8.50;63.00;;;;;;5051452;28;20032;-61
2021/12/02 05:02:24;;;;;;;25.90;20.07;;;8.50;63.00;;;;;;5052885;28;20090;-62
2021/12/02 05:04:49;;;;;;;22.63;20.07;;;8.50;63.60;;;;;;5053677;28;20052;-61
2021/12/02 05:07:15;;;;;;;28.23;20.43;;;8.40;63.90;;;;;;5039861;28;20029;-61
2021/12/02 05:09:41;;;;;;;27.20;20.03;;;8.20;64.10;;;;;;5045534;28;20040;-61
2021/12/02 05:12:06;;;;;;;24.33;20.67;;;8.30;64.50;;;;;;5041269;28;20116;-61
2021/12/02 05:14:32;;;;;;;26.70;21.27;;;8.10;64.90;;;;;;5034887;28;20052;-61
2021/12/02 05:16:57;;;;;;;27.87;21.03;;;8.10;64.60;;;;;;5033983;28;20510;-61
2021/12/02 05:19:23;;;;;;;27.17;21.50;;;8.10;65.10;;;;;;5053393;28;20454;-61
2021/12/02 05:21:49;;;;;;;27.33;20.67;;;8.30;65.10;;;;;;5051265;28;20086;-61
2021/12/02 05:24:14;;;;;;;27.20;20.77;;;8.20;64.80;;;;;;5053439;28;20021;-61
2021/12/02 05:26:40;;;;;;;30.07;21.77;;;8.30;64.80;;;;;;5052637;28;20040;-61
2021/12/02 05:29:06;;;;;;;27.03;20.93;;;8.10;65.60;;;;;;5053559;28;20542;-61
2021/12/02 05:31:31;;;;;;;27.60;21.23;;;8.00;65.90;;;;;;5051710;28;20474;-61
2021/12/02 05:33:57;;;;;;;27.50;20.63;;;8.10;65.70;;;;;;5053139;28;20017;-61
2021/12/02 05:36:23;;;;;;;25.60;20.47;;;8.00;65.90;;;;;;5047451;28;20045;-61
2021/12/02 05:38:48;;;;;;;26.07;21.40;;;7.90;66.20;;;;;;5040059;28;20024;-61
2021/12/02 05:41:16;;;;;;;25.90;19.70;;;7.90;66.70;;;;;;5050136;28;20037;-61
2021/12/02 05:43:42;;;;;;;27.03;21.27;;;7.90;68.50;;;;;;5053012;28;20025;-61
2021/12/02 05:46:08;;;;;;;30.20;21.40;;;7.90;73.20;;;;;;5049977;28;20028;-61
2021/12/02 05:48:33;;;;;;;25.90;20.30;;;7.80;78.80;;;;;;5032168;28;20084;-61
2021/12/02 05:50:59;;;;;;;25.90;21.90;;;7.80;77.80;;;;;;5033546;28;20071;-61
2021/12/02 05:53:25;;;;;;;25.03;20.93;;;7.80;77.20;;;;;;5031922;28;20036;-61
2021/12/02 05:55:51;;;;;;;26.30;20.57;;;7.80;77.00;;;;;;5033128;28;20033;-61
2021/12/02 05:58:17;;;;;;;27.30;21.30;;;7.80;76.40;;;;;;5052512;28;20483;-61
2021/12/02 06:00:43;;;;;;;30.00;21.33;;;7.80;76.00;;;;;;5052927;28;20033;-61
2021/12/02 06:03:09;;;;;;;26.67;20.57;;;7.80;76.20;;;;;;5033858;28;20026;-61
2021/12/02 06:05:34;;;;;;;30.33;21.77;;;7.80;77.00;;;;;;5033485;28;20136;-61
2021/12/02 06:08:03;;;;;;;29.17;21.80;;;;;;;;;;5050379;28;20025;-61
2021/12/02 06:10:29;;;;;;;27.23;21.10;;;7.60;86.90;;;;;;5049780;28;20040;-61
2021/12/02 06:12:55;;;;;;;28.40;21.37;;;7.70;83.90;;;;;;5039786;28;20029;-61
2021/12/02 06:15:21;;;;;;;26.17;21.37;;;7.70;86.20;;;;;;5051598;28;20462;-61
2021/12/02 06:17:47;;;;;;;29.13;21.53;;;7.70;87.10;;;;;;5037138;28;20029;-61
2021/12/02 06:20:17;;;;;;;26.53;20.53;;;7.60;79.30;;;;;;5036743;28;20044;-61
2021/12/02 06:22:43;;;;;;;26.50;20.60;;;7.50;78.80;;;;;;5046862;28;20025;-61
2021/12/02 06:27:46;;;;;;;21.53;18.67;;;7.60;75.60;;;;;;5040470;28;20414;-61
2021/12/02 06:30:15;;;;;;;25.77;19.92;;;7.60;75.80;;;;;;5050169;28;20386;-61
2021/12/02 06:32:41;;;;;;;28.17;21.37;;;7.60;76.30;;;;;;5048706;28;20021;-61
2021/12/02 06:35:08;;;;;;;26.23;20.60;;;7.60;76.20;;;;;;5051683;28;20107;-61
2021/12/02 06:37:33;;;;;;;25.30;20.60;;;7.50;77.10;;;;;;5050133;28;20048;-61
2021/12/02 06:39:59;;;;;;;27.50;20.63;;;7.50;77.60;;;;;;5050642;28;20039;-61
2021/12/02 06:42:25;;;;;;;28.37;20.93;;;7.60;78.10;;;;;;5051468;28;20040;-61
2021/12/02 06:44:50;;;;;;;27.50;20.73;;;7.70;77.80;;;;;;5051762;28;20391;-61
2021/12/02 06:47:16;;;;;;;28.47;21.67;;;7.70;78.20;;;;;;5047494;28;20032;-61
2021/12/02 06:49:42;;;;;;;25.57;21.00;;;7.80;77.50;;;;;;5031435;28;20108;-61
2021/12/02 06:52:14;;;;;;;29.90;22.07;;;7.60;77.70;;;;;;5035524;28;20025;-61
2021/12/02 06:54:40;;;;;;;26.97;21.20;;;7.60;77.30;;;;;;5052111;28;20505;-61
2021/12/02 06:57:06;;;;;;;27.37;20.47;;;7.60;77.80;;;;;;5055257;28;20049;-61
2021/12/02 06:59:32;;;;;;;25.13;21.07;;;7.80;77.90;;;;;;5056371;28;20108;-61
2021/12/02 07:01:58;;;;;;;27.47;21.20;;;7.70;77.40;;;;;;5055087;28;20131;-61
2021/12/02 07:04:23;;;;;;;29.67;21.30;;;7.80;77.40;;;;;;5052836;28;20033;-61
2021/12/02 07:06:49;;;;;;;30.63;20.27;;;7.90;77.90;;;;;;5049117;28;20029;-61
2021/12/02 07:09:15;;;;;;;26.00;21.20;;;7.80;77.90;;;;;;5049898;28;20029;-61
2021/12/02 07:11:41;;;;;;;26.93;20.10;;;8.00;77.60;;;;;;5047161;28;20053;-61
2021/12/02 07:14:10;;;;;;;25.20;20.53;;;8.10;77.20;;;;;;5049380;28;20502;-61
2021/12/02 07:16:38;;;;;;;27.90;19.83;;;8.00;77.10;;;;;;5054943;28;20028;-61
2021/12/02 07:19:08;;;;;;;24.40;20.60;;;8.00;76.40;;;;;;5054718;28;20028;-61
2021/12/02 07:21:38;;;;;;;26.80;19.97;;;8.10;77.20;;;;;;5055535;28;20517;-61
2021/12/02 07:24:06;;;;;;;24.00;19.80;;;8.00;76.30;;;;;;5055178;28;20025;-61
2021/12/02 07:26:33;;;;;;;26.93;20.67;;;7.90;76.90;;;;;;5056056;28;20021;-62
2021/12/02 07:28:59;;;;;;;26.87;21.70;;;8.00;76.60;;;;;;5054211;28;20029;-62
2021/12/02 07:31:30;;;;;;;25.70;21.80;;;8.00;77.10;;;;;;5054355;28;20070;-62
2021/12/02 07:33:57;;;;;;;25.53;21.03;;;8.00;77.00;;;;;;5053468;28;20036;-61
2021/12/02 07:36:23;;;;;;;27.60;21.13;;;8.00;77.10;;;;;;5054846;28;20509;-62
2021/12/02 07:38:49;;;;;;;30.83;22.67;;;8.00;77.50;;;;;;5053154;28;20036;-61
2021/12/02 07:41:15;;;;;;;25.80;21.67;;;8.00;76.30;;;;;;5055934;28;20067;-62
2021/12/02 07:43:41;;;;;;;30.97;21.97;;;7.90;76.80;;;;;;5044232;28;20039;-62
2021/12/02 07:46:08;;;;;;;29.90;21.20;;;7.90;77.40;;;;;;5035804;28;20104;-62
2021/12/02 07:48:35;;;;;;;29.53;22.00;;;7.90;76.60;;;;;;5048167;28;20108;-62
2021/12/02 07:51:11;;;;;;;30.47;21.93;;;7.90;77.50;;;;;;5055339;28;20017;-62
2021/12/02 07:53:42;;;;;;;29.40;21.53;;;7.90;77.30;;;;;;5054247;28;20390;-62
2021/12/02 07:56:14;;;;;;;30.50;21.43;;;7.90;77.10;;;;;;5049609;28;20025;-62
2021/12/02 07:58:43;;;;;;;31.63;23.30;;;7.90;77.10;;;;;;5048918;28;20032;-61
2021/12/02 08:01:10;;;;;;;29.23;22.53;;;8.00;77.70;;;;;;5054943;28;20033;-62
2021/12/02 08:03:36;;;;;;;28.77;22.70;;;8.10;77.20;;;;;;5053832;28;20033;-61
2021/12/02 08:06:01;;;;;;;29.87;23.20;;;8.20;77.00;;;;;;5053964;28;20028;-61
2021/12/02 08:08:27;;;;;;;29.73;22.03;;;8.10;76.40;;;;;;5052603;28;20025;-62
2021/12/02 08:10:53;;;;;;;26.50;21.70;;;7.90;76.10;;;;;;5055218;28;20075;-62
2021/12/02 08:13:19;;;;;;;30.70;23.60;;;8.00;76.90;;;;;;5043491;28;20034;-61
2021/12/02 08:15:45;;;;;;;29.47;22.87;;;8.00;76.50;;;;;;5034911;28;20029;-62
2021/12/02 08:18:11;;;;;;;28.93;21.87;;;8.00;77.00;;;;;;5043280;28;20104;-61
2021/12/02 08:20:37;;;;;;;26.80;22.10;;;7.90;76.30;;;;;;5054962;28;20041;-61
2021/12/02 08:23:04;;;;;;;27.63;22.17;;;7.90;76.50;;;;;;5051722;28;20057;-61
2021/12/02 08:25:31;;;;;;;36.37;23.13;;;8.00;76.30;;;;;;5054321;28;20044;-61
2021/12/02 08:27:59;;;;;;;29.30;22.10;;;7.80;77.30;;;;;;5053913;28;20029;-62
2021/12/02 08:30:27;;;;;;;27.40;22.37;;;7.90;76.40;;;;;;5055038;28;20024;-62
2021/12/02 08:32:54;;;;;;;30.63;23.73;;;7.90;76.70;;;;;;5046900;28;20479;-62
2021/12/02 08:35:20;;;;;;;34.77;22.43;;;7.90;77.10;;;;;;5042188;28;20033;-62
2021/12/02 08:37:49;;;;;;;28.13;22.37;;;7.80;77.20;;;;;;5051400;28;20410;-62
2021/12/02 08:40:17;;;;;;;27.50;22.17;;;7.80;77.10;;;;;;5054483;28;20029;-62
2021/12/02 08:42:44;;;;;;;27.77;21.77;;;7.90;77.00;;;;;;5044744;28;20105;-62
2021/12/02 08:45:10;;;;;;;25.37;22.00;;;7.80;77.60;;;;;;5048200;28;20024;-62
2021/12/02 08:47:43;;;;;;;31.27;21.90;;;7.90;77.00;;;;;;5036261;28;20524;-62
2021/12/02 08:50:09;;;;;;;28.77;21.87;;;8.10;77.40;;;;;;5048135;28;20108;-62
2021/12/02 08:52:35;;;;;;;28.17;22.80;;;8.30;76.50;;;;;;5049285;28;20036;-62
2021/12/02 08:55:00;;;;;;;31.40;23.43;;;8.30;76.80;;;;;;5039213;28;20024;-61
2021/12/02 08:57:26;;;;;;;32.50;22.43;;;8.20;78.10;;;;;;5051743;28;20037;-61
2021/12/02 08:59:52;;;;;;;31.30;22.57;;;8.30;77.60;;;;;;5048528;28;20089;-61
2021/12/02 09:02:18;;;;;;;27.97;22.20;;;8.30;77.70;;;;;;5051711;28;20068;-62
2021/12/02 09:04:43;;;;;;;29.07;22.33;;;8.20;77.30;;;;;;5043035;28;20129;-61
2021/12/02 09:07:09;;;;;;;27.30;21.57;;;8.30;77.50;;;;;;5050900;28;20490;-62
2021/12/02 09:09:35;;;;;;;31.83;22.77;;;8.40;77.60;;;;;;5051463;28;20378;-62
2021/12/02 09:12:02;;;;;;;26.97;21.87;;;8.40;77.10;;;;;;5046316;28;20033;-62
2021/12/02 09:14:27;;;;;;;32.43;23.20;;;8.40;78.60;;;;;;5049083;28;20025;-62
2021/12/02 09:16:53;;;;;;;28.33;21.60;;;8.60;78.60;;;;;;5052099;28;20025;-62
2021/12/02 09:19:19;;;;;;;27.33;21.70;;;8.60;80.00;;;;;;5046323;28;20030;-62
2021/12/02 09:21:45;;;;;;;29.90;22.30;;;8.50;80.00;;;;;;5052030;28;20041;-62
2021/12/02 09:24:18;;;;;;;28.40;22.53;;;8.50;79.70;;;;;;5050460;28;20485;-62
2021/12/02 09:26:53;;;;;;;26.90;21.53;;;8.40;80.20;;;;;;5051406;28;20079;-62
2021/12/02 09:29:20;;;;;;;29.67;22.27;;;8.40;80.80;;;;;;5050492;28;20372;-62
2021/12/02 09:31:46;;;;;;;28.83;22.70;;;8.60;80.80;;;;;;5051092;28;20110;-62
2021/12/02 09:34:13;;;;;;;27.47;22.23;;;8.50;80.60;;;;;;5043743;28;20020;-62
2021/12/02 09:36:39;;;;;;;28.37;22.33;;;8.50;79.30;;;;;;5049621;28;20410;-62
2021/12/02 09:39:07;;;;;;;26.73;21.80;;;8.60;80.20;;;;;;5037166;28;20039;-62
2021/12/02 09:41:34;;;;;;;29.13;22.27;;;8.60;79.70;;;;;;5051490;28;20041;-62
2021/12/02 09:44:00;;;;;;;33.43;22.97;;;8.50;81.20;;;;;;5051569;28;20020;-62
2021/12/02 09:46:25;;;;;;;27.10;22.50;;;8.50;81.10;;;;;;5052157;28;20398;-62
2021/12/02 09:48:54;;;;;;;32.23;23.13;;;8.50;80.70;;;;;;5042016;28;20056;-62
2021/12/02 09:51:24;;;;;;;29.57;23.37;;;8.60;80.90;;;;;;5052574;28;20123;-62
2021/12/02 09:56:24;;;;;;;26.40;21.87;;;;;;;;;;5052692;28;20390;-61
2021/12/02 09:58:52;;;;;;;30.98;22.65;;;;;;;;;;5043830;28;20540;-62
2021/12/02 10:01:20;;;;;;;28.00;22.70;;;;;;;;;;5051129;28;20072;-62
2021/12/02 10:03:51;;;;;;;27.97;23.03;;;;;;;;;;5050531;28;20104;-61
2021/12/02 10:06:21;;;;;;;30.43;23.23;;;;;;;;;;5044587;28;20435;-61
2021/12/02 10:11:26;;;;;;;30.57;23.20;;;;;;;;;;5052178;28;20029;-61
2021/12/02 10:14:00;;;;;;;29.57;22.47;;;;;;;;;;5050432;28;20029;-61
2021/12/02 10:18:56;;;;;;;30.77;23.03;;;;;;;;;;5049908;28;20040;-61
2021/12/02 10:21:28;;;;;;;31.10;22.00;;;8.80;62.90;;;;;;5051849;28;20041;-61
2021/12/02 10:23:54;;;;;;;32.33;23.63;;;9.00;64.70;;;;;;5044302;28;20087;-61
2021/12/02 10:26:22;;;;;;;30.13;21.17;;;9.00;64.30;;;;;;5051876;28;20041;-62
2021/12/02 10:28:51;;;;;;;29.30;22.03;;;9.00;64.30;;;;;;5051001;28;20462;-62
2021/12/02 10:31:23;;;;;;;30.83;22.63;;;9.00;64.60;;;;;;5053806;28;20032;-61
2021/12/02 10:34:02;;;;;;;30.60;23.63;;;9.00;65.20;;;;;;5052602;28;20037;-62
2021/12/02 10:36:39;;;;;;;31.93;23.03;;;9.00;64.70;;;;;;5035541;28;20490;-62
2021/12/02 10:39:25;;;;;;;28.80;22.97;;;9.00;64.40;;;;;;5053984;28;20398;-62
2021/12/02 10:42:07;;;;;;;25.57;21.07;;;9.10;65.60;;;;;;5054778;28;20048;-61
2021/12/02 10:44:35;;;;;;;29.70;22.43;;;9.00;64.20;;;;;;5053465;28;20528;-61
2021/12/02 10:47:13;;;;;;;27.87;22.80;;;9.10;65.40;;;;;;5055469;28;20119;-62
2021/12/02 10:49:43;;;;;;;30.50;23.27;;;9.10;65.20;;;;;;5050930;28;20524;-62
2021/12/02 10:52:15;;;;;;;30.47;21.70;;;9.20;65.00;;;;;;5055354;28;20532;-62
2021/12/02 10:54:47;;;;;;;31.57;21.40;;;9.20;64.00;;;;;;5047838;28;20036;-62
2021/12/02 10:57:21;;;;;;;29.53;23.77;;;9.20;64.10;;;;;;5055796;28;20111;-63
2021/12/02 10:59:52;;;;;;;34.88;24.25;;;9.30;64.10;;;;;;5054213;28;20144;-63
2021/12/02 11:02:20;;;;;;;29.07;23.83;;;9.40;65.30;;;;;;5051647;28;20090;-63
2021/12/02 11:04:50;;;;;;;28.13;21.63;;;9.40;64.90;;;;;;5048754;28;20033;-63
2021/12/02 11:07:21;;;;;;;29.30;23.10;;;9.40;65.10;;;;;;5055375;28;20049;-63
2021/12/02 11:09:49;;;;;;;31.23;21.87;;;9.50;64.00;;;;;;5052848;28;20060;-62
2021/12/02 11:12:19;;;;;;;30.10;22.10;;;9.40;64.70;;;;;;5055101;28;20032;-63
2021/12/02 11:15:01;;;;;;;28.97;22.47;;;9.50;65.60;;;;;;5049626;28;20032;-63
2021/12/02 11:17:33;;;;;;;28.73;20.90;;;9.60;64.60;;;;;;5053429;28;20028;-63
2021/12/02 11:20:02;;;;;;;26.97;21.40;;;9.60;65.20;;;;;;5048929;28;20025;-63
2021/12/02 11:22:29;;;;;;;31.13;23.20;;;9.60;64.10;;;;;;5052091;28;20520;-62
2021/12/02 11:24:56;;;;;;;27.90;22.17;;;9.50;63.80;;;;;;5052709;28;20447;-62
2021/12/02 11:27:37;;;;;;;28.33;21.57;;;9.60;64.50;;;;;;5055009;28;20036;-63
2021/12/02 11:30:07;;;;;;;28.23;21.53;;;9.60;63.00;;;;;;5049641;28;20025;-62
2021/12/02 11:32:43;;;;;;;26.50;21.17;;;9.70;63.10;;;;;;5054712;28;20029;-63
2021/12/02 11:35:17;;;;;;;25.07;20.80;;;9.60;63.40;;;;;;5048606;28;20083;-63
2021/12/02 11:37:46;;;;;;;26.73;20.85;;;9.80;76.00;;;;;;5053578;28;20040;-63
2021/12/02 11:40:17;;;;;;;27.50;21.33;;;9.80;77.00;;;;;;5053438;28;20041;-63
2021/12/02 11:42:44;;;;;;;29.90;22.60;;;9.60;75.00;;;;;;5052964;28;20036;-63
2021/12/02 11:45:12;;;;;;;26.07;21.57;;;9.70;75.40;;;;;;5049649;28;20483;-63
2021/12/02 11:47:38;;;;;;;26.67;21.53;;;9.60;74.40;;;;;;5048671;28;20029;-62
2021/12/02 11:50:07;;;;;;;27.73;21.67;;;9.70;75.70;;;;;;5052690;28;20184;-63
2021/12/02 11:52:36;;;;;;;27.63;21.33;;;9.70;74.90;;;;;;5053454;28;20056;-63
2021/12/02 11:55:04;;;;;;;27.90;20.70;;;9.70;74.60;;;;;;5043804;28;20059;-63
2021/12/02 11:57:33;;;;;;;26.43;19.63;;;9.80;73.70;;;;;;5048487;28;20037;-63
2021/12/02 11:59:59;;;;;;;26.77;20.30;;;9.80;72.30;;;;;;5046413;28;20470;-63
2021/12/02 12:02:25;;;;;;;24.50;19.57;;;9.80;72.90;;;;;;5050149;28;20049;-63
2021/12/02 12:05:09;;;;;;;26.07;21.17;;;9.80;73.00;;;;;;5048510;28;20033;-63
2021/12/02 12:07:39;;;;;;;24.23;19.77;;;9.90;73.70;;;;;;5049720;28;20548;-63
2021/12/02 12:10:20;;;;;;;25.93;19.27;;;10.00;74.30;;;;;;5045254;28;20679;-63
2021/12/02 12:12:46;;;;;;;25.03;20.53;;;10.00;68.40;;;;;;5043675;28;20092;-62
2021/12/02 12:15:32;;;;;;;24.97;20.50;;;10.10;65.50;;;;;;5044031;28;20029;-63
2021/12/02 12:17:59;;;;;;;24.87;20.87;;;;;;;;;;5043805;28;20079;-63
2021/12/02 12:20:44;;;;;;;27.40;20.30;;;;;;;;;;5048789;28;20490;-63
2021/12/02 12:23:30;;;;;;;25.15;19.55;;;9.90;86.70;;;;;;5048684;28;20029;-63
2021/12/02 12:26:08;;;;;;;26.80;21.53;;;10.30;63.60;;;;;;5045400;28;20118;-63
2021/12/02 12:32:14;;;;;;;27.13;20.73;;;10.30;64.20;;;;;;5047599;28;20036;-63
2021/12/02 12:37:20;;;;;;;31.30;20.67;;;10.40;69.10;;;;;;5046635;28;20047;-63
2021/12/02 12:40:08;;;;;;;27.50;20.83;;;10.40;72.40;;;;;;5044119;28;20030;-63
2021/12/02 12:42:36;;;;;;;25.57;20.47;;;10.40;66.00;;;;;;5046429;28;20045;-63
2021/12/02 12:45:04;;;;;;;27.07;18.17;;;10.60;54.70;;;;;;5047855;28;20024;-63
2021/12/02 12:47:51;;;;;;;20.27;16.50;;;10.60;56.70;;;;;;5049551;28;20756;-63
2021/12/02 12:50:20;;;;;;;20.67;16.33;;;10.50;52.50;;;;;;5048523;28;20036;-62
2021/12/02 12:52:46;;;;;;;23.87;16.70;;;10.50;54.10;;;;;;5043503;28;20044;-62
2021/12/02 12:55:16;;;;;;;20.40;16.77;;;10.60;54.80;;;;;;5045809;28;20072;-63
2021/12/02 12:58:19;;;;;;;18.97;15.43;;;10.50;55.60;;;;;;5045773;28;20071;-63
2021/12/02 13:00:50;;;;;;;20.77;16.00;;;10.60;55.60;;;;;;5030182;28;20131;-64
2021/12/02 13:06:00;;;;;;;23.63;18.73;;;10.60;67.00;;;;;;5047989;28;20034;-63
2021/12/02 13:08:35;;;;;;;23.63;17.33;;;10.80;67.50;;;;;;5043240;28;20044;-63
2021/12/02 13:11:13;;;;;;;25.23;18.60;;;10.70;50.30;;;;;;5045898;28;20041;-63
2021/12/02 13:13:40;;;;;;;24.70;16.63;;;10.60;46.80;;;;;;5044408;28;20036;-63
2021/12/02 13:16:19;;;;;;;21.57;17.20;;;10.50;47.60;;;;;;5047065;28;20021;-63
2021/12/02 13:18:59;;;;;;;18.90;16.77;;;10.60;47.60;;;;;;5047094;28;20036;-63
2021/12/02 13:21:32;;;;;;;24.40;17.50;;;10.60;47.30;;;;;;5049067;28;20441;-63